sensor_id;sensor_type;location;lat;lon;timestamp;P1;durP1;ratioP1;P2;durP2;ratioP2
77466;SDS011;66564;42.482;25.548;2024-01-06T00:01:48;9.73;;;2.97;;
77466;SDS011;66564;42.482;25.548;2024-01-06T00:04:14;5.38;;;2.85;;
77466;SDS011;66564;42.482;25.548;2024-01-06T00:06:39;5.53;;;3.08;;
77466;SDS011;66564;42.482;25.548;2024-01-06T00:09:04;5.57;;;2.85;;
77466;SDS011;66564;42.482;25.548;2024-01-06T00:11:32;5.85;;;2.90;;
77466;SDS011;66564;42.482;25.548;2024-01-06T00:13:58;8.05;;;3.00;;
77466;SDS011;66564;42.482;25.548;2024-01-06T00:16:23;4.85;;;2.72;;
77466;SDS011;66564;42.482;25.548;2024-01-06T00:18:49;6.22;;;3.10;;
77466;SDS011;66564;42.482;25.548;2024-01-06T00:21:14;5.90;;;2.85;;
77466;SDS011;66564;42.482;25.548;2024-01-06T00:23:40;6.80;;;3.22;;
77466;SDS011;66564;42.482;25.548;2024-01-06T00:26:06;5.40;;;3.65;;
77466;SDS011;66564;42.482;25.548;2024-01-06T00:28:33;5.40;;;2.97;;
77466;SDS011;66564;42.482;25.548;2024-01-06T00:30:59;7.45;;;2.90;;
77466;SDS011;66564;42.482;25.548;2024-01-06T00:33:24;12.32;;;3.50;;
77466;SDS011;66564;42.482;25.548;2024-01-06T00:35:49;5.60;;;2.83;;
77466;SDS011;66564;42.482;25.548;2024-01-06T00:38:17;6.10;;;2.90;;
77466;SDS011;66564;42.482;25.548;2024-01-06T00:40:43;7.65;;;2.95;;
77466;SDS011;66564;42.482;25.548;2024-01-06T00:43:09;3.75;;;2.75;;
77466;SDS011;66564;42.482;25.548;2024-01-06T00:45:37;6.35;;;2.92;;
77466;SDS011;66564;42.482;25.548;2024-01-06T00:48:03;5.15;;;2.83;;
77466;SDS011;66564;42.482;25.548;2024-01-06T00:50:29;7.82;;;2.72;;
77466;SDS011;66564;42.482;25.548;2024-01-06T00:52:54;5.47;;;2.45;;
77466;SDS011;66564;42.482;25.548;2024-01-06T00:55:21;5.13;;;2.60;;
77466;SDS011;66564;42.482;25.548;2024-01-06T00:57:47;4.28;;;2.53;;
77466;SDS011;66564;42.482;25.548;2024-01-06T01:00:13;10.93;;;3.42;;
77466;SDS011;66564;42.482;25.548;2024-01-06T01:02:39;5.63;;;2.72;;
77466;SDS011;66564;42.482;25.548;2024-01-06T01:05:04;5.78;;;3.53;;
77466;SDS011;66564;42.482;25.548;2024-01-06T01:07:32;10.45;;;4.60;;
77466;SDS011;66564;42.482;25.548;2024-01-06T01:09:57;7.32;;;4.18;;
77466;SDS011;66564;42.482;25.548;2024-01-06T01:12:23;10.85;;;3.33;;
77466;SDS011;66564;42.482;25.548;2024-01-06T01:14:51;6.03;;;3.53;;
77466;SDS011;66564;42.482;25.548;2024-01-06T01:17:17;5.25;;;3.03;;
77466;SDS011;66564;42.482;25.548;2024-01-06T01:19:43;5.72;;;2.92;;
77466;SDS011;66564;42.482;25.548;2024-01-06T01:22:09;3.65;;;2.55;;
77466;SDS011;66564;42.482;25.548;2024-01-06T01:24:34;6.68;;;2.97;;
77466;SDS011;66564;42.482;25.548;2024-01-06T01:27:03;8.50;;;3.00;;
77466;SDS011;66564;42.482;25.548;2024-01-06T01:29:29;4.28;;;2.30;;
77466;SDS011;66564;42.482;25.548;2024-01-06T01:31:56;4.72;;;2.75;;
77466;SDS011;66564;42.482;25.548;2024-01-06T01:34:23;8.15;;;3.13;;
77466;SDS011;66564;42.482;25.548;2024-01-06T01:36:49;5.35;;;2.28;;
77466;SDS011;66564;42.482;25.548;2024-01-06T01:39:17;5.00;;;2.25;;
77466;SDS011;66564;42.482;25.548;2024-01-06T01:41:42;2.67;;;1.95;;
77466;SDS011;66564;42.482;25.548;2024-01-06T01:44:08;4.70;;;2.85;;
77466;SDS011;66564;42.482;25.548;2024-01-06T01:46:34;5.88;;;3.20;;
77466;SDS011;66564;42.482;25.548;2024-01-06T01:49:00;4.18;;;2.63;;
77466;SDS011;66564;42.482;25.548;2024-01-06T01:51:29;5.20;;;2.58;;
77466;SDS011;66564;42.482;25.548;2024-01-06T01:53:59;7.18;;;2.88;;
77466;SDS011;66564;42.482;25.548;2024-01-06T01:56:27;8.68;;;3.47;;
77466;SDS011;66564;42.482;25.548;2024-01-06T01:58:53;7.47;;;3.22;;
77466;SDS011;66564;42.482;25.548;2024-01-06T02:01:20;7.05;;;3.05;;
77466;SDS011;66564;42.482;25.548;2024-01-06T02:03:46;6.32;;;3.03;;
77466;SDS011;66564;42.482;25.548;2024-01-06T02:06:11;8.10;;;3.03;;
77466;SDS011;66564;42.482;25.548;2024-01-06T02:08:38;6.78;;;2.97;;
77466;SDS011;66564;42.482;25.548;2024-01-06T02:11:04;4.75;;;2.80;;
77466;SDS011;66564;42.482;25.548;2024-01-06T02:13:36;6.15;;;2.67;;
77466;SDS011;66564;42.482;25.548;2024-01-06T02:16:02;6.50;;;2.70;;
77466;SDS011;66564;42.482;25.548;2024-01-06T02:18:30;4.57;;;2.72;;
77466;SDS011;66564;42.482;25.548;2024-01-06T02:20:57;5.57;;;2.92;;
77466;SDS011;66564;42.482;25.548;2024-01-06T02:23:23;5.75;;;2.45;;
77466;SDS011;66564;42.482;25.548;2024-01-06T02:25:49;7.10;;;2.88;;
77466;SDS011;66564;42.482;25.548;2024-01-06T02:28:14;6.40;;;2.50;;
77466;SDS011;66564;42.482;25.548;2024-01-06T02:30:45;5.80;;;2.50;;
77466;SDS011;66564;42.482;25.548;2024-01-06T02:33:11;6.90;;;2.83;;
77466;SDS011;66564;42.482;25.548;2024-01-06T02:35:37;5.00;;;2.58;;
77466;SDS011;66564;42.482;25.548;2024-01-06T02:38:02;4.43;;;2.25;;
77466;SDS011;66564;42.482;25.548;2024-01-06T02:40:31;6.25;;;2.95;;
77466;SDS011;66564;42.482;25.548;2024-01-06T02:42:57;5.57;;;2.70;;
77466;SDS011;66564;42.482;25.548;2024-01-06T02:45:23;5.03;;;2.30;;
77466;SDS011;66564;42.482;25.548;2024-01-06T02:47:51;5.10;;;2.58;;
77466;SDS011;66564;42.482;25.548;2024-01-06T02:50:17;6.30;;;3.00;;
77466;SDS011;66564;42.482;25.548;2024-01-06T02:52:43;5.68;;;2.80;;
77466;SDS011;66564;42.482;25.548;2024-01-06T02:55:09;4.68;;;2.97;;
77466;SDS011;66564;42.482;25.548;2024-01-06T02:57:34;4.85;;;2.75;;
77466;SDS011;66564;42.482;25.548;2024-01-06T03:00:04;4.80;;;3.00;;
77466;SDS011;66564;42.482;25.548;2024-01-06T03:02:32;8.75;;;2.40;;
77466;SDS011;66564;42.482;25.548;2024-01-06T03:04:58;4.32;;;2.72;;
77466;SDS011;66564;42.482;25.548;2024-01-06T03:07:23;5.50;;;2.80;;
77466;SDS011;66564;42.482;25.548;2024-01-06T03:09:49;5.13;;;2.70;;
77466;SDS011;66564;42.482;25.548;2024-01-06T03:12:14;6.43;;;3.13;;
77466;SDS011;66564;42.482;25.548;2024-01-06T03:14:42;5.07;;;2.53;;
77466;SDS011;66564;42.482;25.548;2024-01-06T03:17:07;3.97;;;2.53;;
77466;SDS011;66564;42.482;25.548;2024-01-06T03:19:36;4.35;;;2.42;;
77466;SDS011;66564;42.482;25.548;2024-01-06T03:22:01;5.70;;;2.45;;
77466;SDS011;66564;42.482;25.548;2024-01-06T03:24:27;8.20;;;2.60;;
77466;SDS011;66564;42.482;25.548;2024-01-06T03:26:55;9.10;;;2.63;;
77466;SDS011;66564;42.482;25.548;2024-01-06T03:29:20;5.00;;;2.40;;
77466;SDS011;66564;42.482;25.548;2024-01-06T03:31:46;5.55;;;2.63;;
77466;SDS011;66564;42.482;25.548;2024-01-06T03:34:14;5.10;;;2.60;;
77466;SDS011;66564;42.482;25.548;2024-01-06T03:36:40;6.20;;;2.70;;
77466;SDS011;66564;42.482;25.548;2024-01-06T03:39:06;6.47;;;2.90;;
77466;SDS011;66564;42.482;25.548;2024-01-06T03:41:32;4.72;;;2.40;;
77466;SDS011;66564;42.482;25.548;2024-01-06T03:43:57;5.75;;;2.97;;
77466;SDS011;66564;42.482;25.548;2024-01-06T03:46:26;7.35;;;2.88;;
77466;SDS011;66564;42.482;25.548;2024-01-06T03:48:52;6.13;;;2.70;;
77466;SDS011;66564;42.482;25.548;2024-01-06T03:51:18;6.80;;;2.65;;
77466;SDS011;66564;42.482;25.548;2024-01-06T03:53:43;4.85;;;2.83;;
77466;SDS011;66564;42.482;25.548;2024-01-06T03:56:09;5.43;;;3.15;;
77466;SDS011;66564;42.482;25.548;2024-01-06T03:58:34;4.00;;;2.45;;
77466;SDS011;66564;42.482;25.548;2024-01-06T04:01:00;6.03;;;2.80;;
77466;SDS011;66564;42.482;25.548;2024-01-06T04:03:26;7.72;;;2.92;;
77466;SDS011;66564;42.482;25.548;2024-01-06T04:05:51;5.28;;;2.58;;
77466;SDS011;66564;42.482;25.548;2024-01-06T04:08:17;5.97;;;3.20;;
77466;SDS011;66564;42.482;25.548;2024-01-06T04:10:43;5.80;;;2.80;;
77466;SDS011;66564;42.482;25.548;2024-01-06T04:13:10;6.97;;;2.65;;
77466;SDS011;66564;42.482;25.548;2024-01-06T04:15:36;5.38;;;2.92;;
77466;SDS011;66564;42.482;25.548;2024-01-06T04:18:02;6.80;;;2.70;;
77466;SDS011;66564;42.482;25.548;2024-01-06T04:20:29;4.82;;;2.80;;
77466;SDS011;66564;42.482;25.548;2024-01-06T04:22:55;5.55;;;3.05;;
77466;SDS011;66564;42.482;25.548;2024-01-06T04:25:20;6.72;;;2.60;;
77466;SDS011;66564;42.482;25.548;2024-01-06T04:27:46;13.43;;;3.20;;
77466;SDS011;66564;42.482;25.548;2024-01-06T04:30:13;5.43;;;3.10;;
77466;SDS011;66564;42.482;25.548;2024-01-06T04:32:39;5.18;;;3.10;;
77466;SDS011;66564;42.482;25.548;2024-01-06T04:35:05;5.57;;;2.75;;
77466;SDS011;66564;42.482;25.548;2024-01-06T04:37:31;5.57;;;3.17;;
77466;SDS011;66564;42.482;25.548;2024-01-06T04:39:56;4.80;;;3.38;;
77466;SDS011;66564;42.482;25.548;2024-01-06T04:42:22;4.00;;;2.78;;
77466;SDS011;66564;42.482;25.548;2024-01-06T04:44:48;5.32;;;2.60;;
77466;SDS011;66564;42.482;25.548;2024-01-06T04:47:14;4.50;;;2.78;;
77466;SDS011;66564;42.482;25.548;2024-01-06T04:49:40;7.55;;;2.75;;
77466;SDS011;66564;42.482;25.548;2024-01-06T04:52:05;5.25;;;2.70;;
77466;SDS011;66564;42.482;25.548;2024-01-06T04:54:33;4.90;;;2.75;;
77466;SDS011;66564;42.482;25.548;2024-01-06T04:56:58;3.97;;;2.50;;
77466;SDS011;66564;42.482;25.548;2024-01-06T04:59:24;4.55;;;2.55;;
77466;SDS011;66564;42.482;25.548;2024-01-06T05:01:52;6.10;;;2.70;;
77466;SDS011;66564;42.482;25.548;2024-01-06T05:04:21;4.05;;;2.65;;
77466;SDS011;66564;42.482;25.548;2024-01-06T05:06:46;6.15;;;3.08;;
77466;SDS011;66564;42.482;25.548;2024-01-06T05:09:14;4.53;;;2.63;;
77466;SDS011;66564;42.482;25.548;2024-01-06T05:11:40;4.50;;;2.70;;
77466;SDS011;66564;42.482;25.548;2024-01-06T05:14:05;3.88;;;2.40;;
77466;SDS011;66564;42.482;25.548;2024-01-06T05:16:31;5.07;;;2.80;;
77466;SDS011;66564;42.482;25.548;2024-01-06T05:18:56;5.05;;;2.60;;
77466;SDS011;66564;42.482;25.548;2024-01-06T05:21:22;5.88;;;2.90;;
77466;SDS011;66564;42.482;25.548;2024-01-06T05:23:51;4.45;;;2.75;;
77466;SDS011;66564;42.482;25.548;2024-01-06T05:26:16;5.05;;;2.90;;
77466;SDS011;66564;42.482;25.548;2024-01-06T05:28:42;6.15;;;2.60;;
77466;SDS011;66564;42.482;25.548;2024-01-06T05:31:08;4.65;;;2.47;;
77466;SDS011;66564;42.482;25.548;2024-01-06T05:33:33;4.32;;;2.92;;
77466;SDS011;66564;42.482;25.548;2024-01-06T05:35:59;4.15;;;3.45;;
77466;SDS011;66564;42.482;25.548;2024-01-06T05:38:24;5.03;;;2.63;;
77466;SDS011;66564;42.482;25.548;2024-01-06T05:40:50;4.53;;;3.00;;
77466;SDS011;66564;42.482;25.548;2024-01-06T05:43:15;5.20;;;2.75;;
77466;SDS011;66564;42.482;25.548;2024-01-06T05:45:41;5.88;;;3.45;;
77466;SDS011;66564;42.482;25.548;2024-01-06T05:48:10;9.63;;;3.13;;
77466;SDS011;66564;42.482;25.548;2024-01-06T05:50:42;6.10;;;3.00;;
77466;SDS011;66564;42.482;25.548;2024-01-06T05:53:07;9.82;;;3.63;;
77466;SDS011;66564;42.482;25.548;2024-01-06T05:55:33;7.75;;;3.05;;
77466;SDS011;66564;42.482;25.548;2024-01-06T05:57:59;7.78;;;3.22;;
77466;SDS011;66564;42.482;25.548;2024-01-06T06:00:26;4.45;;;2.75;;
77466;SDS011;66564;42.482;25.548;2024-01-06T06:02:51;14.27;;;3.42;;
77466;SDS011;66564;42.482;25.548;2024-01-06T06:05:17;5.30;;;3.25;;
77466;SDS011;66564;42.482;25.548;2024-01-06T06:07:42;4.32;;;2.88;;
77466;SDS011;66564;42.482;25.548;2024-01-06T06:10:09;5.80;;;3.08;;
77466;SDS011;66564;42.482;25.548;2024-01-06T06:12:35;6.80;;;2.92;;
77466;SDS011;66564;42.482;25.548;2024-01-06T06:15:04;6.47;;;3.25;;
77466;SDS011;66564;42.482;25.548;2024-01-06T06:17:31;17.05;;;3.38;;
77466;SDS011;66564;42.482;25.548;2024-01-06T06:19:59;12.07;;;3.42;;
77466;SDS011;66564;42.482;25.548;2024-01-06T06:22:25;21.55;;;3.78;;
77466;SDS011;66564;42.482;25.548;2024-01-06T06:24:55;11.05;;;3.90;;
77466;SDS011;66564;42.482;25.548;2024-01-06T06:27:21;8.52;;;3.85;;
77466;SDS011;66564;42.482;25.548;2024-01-06T06:29:49;8.27;;;2.90;;
77466;SDS011;66564;42.482;25.548;2024-01-06T06:32:14;9.07;;;3.05;;
77466;SDS011;66564;42.482;25.548;2024-01-06T06:34:40;8.85;;;3.83;;
77466;SDS011;66564;42.482;25.548;2024-01-06T06:37:05;13.60;;;7.32;;
77466;SDS011;66564;42.482;25.548;2024-01-06T06:39:32;17.63;;;9.18;;
77466;SDS011;66564;42.482;25.548;2024-01-06T06:41:59;15.68;;;8.52;;
77466;SDS011;66564;42.482;25.548;2024-01-06T06:44:24;10.82;;;6.78;;
77466;SDS011;66564;42.482;25.548;2024-01-06T06:46:50;8.73;;;5.32;;
77466;SDS011;66564;42.482;25.548;2024-01-06T06:49:21;11.13;;;5.50;;
77466;SDS011;66564;42.482;25.548;2024-01-06T06:51:46;9.80;;;5.43;;
77466;SDS011;66564;42.482;25.548;2024-01-06T06:54:13;7.50;;;4.15;;
77466;SDS011;66564;42.482;25.548;2024-01-06T06:56:40;9.45;;;4.50;;
77466;SDS011;66564;42.482;25.548;2024-01-06T06:59:09;8.73;;;4.70;;
77466;SDS011;66564;42.482;25.548;2024-01-06T07:01:39;7.80;;;5.10;;
77466;SDS011;66564;42.482;25.548;2024-01-06T07:04:04;8.05;;;4.57;;
77466;SDS011;66564;42.482;25.548;2024-01-06T07:06:30;8.80;;;4.55;;
77466;SDS011;66564;42.482;25.548;2024-01-06T07:08:58;9.50;;;5.28;;
77466;SDS011;66564;42.482;25.548;2024-01-06T07:11:25;9.05;;;5.50;;
77466;SDS011;66564;42.482;25.548;2024-01-06T07:13:53;8.20;;;5.47;;
77466;SDS011;66564;42.482;25.548;2024-01-06T07:16:19;10.27;;;5.75;;
77466;SDS011;66564;42.482;25.548;2024-01-06T07:18:44;15.15;;;6.10;;
77466;SDS011;66564;42.482;25.548;2024-01-06T07:21:11;38.28;;;5.38;;
77466;SDS011;66564;42.482;25.548;2024-01-06T07:23:37;21.17;;;4.85;;
77466;SDS011;66564;42.482;25.548;2024-01-06T07:26:02;13.65;;;4.93;;
77466;SDS011;66564;42.482;25.548;2024-01-06T07:28:28;7.45;;;4.10;;
77466;SDS011;66564;42.482;25.548;2024-01-06T07:30:54;12.23;;;5.13;;
77466;SDS011;66564;42.482;25.548;2024-01-06T07:33:20;22.63;;;6.10;;
77466;SDS011;66564;42.482;25.548;2024-01-06T07:35:46;15.52;;;4.78;;
77466;SDS011;66564;42.482;25.548;2024-01-06T07:38:12;11.30;;;5.95;;
77466;SDS011;66564;42.482;25.548;2024-01-06T07:40:38;11.05;;;5.85;;
77466;SDS011;66564;42.482;25.548;2024-01-06T07:43:04;10.50;;;6.28;;
77466;SDS011;66564;42.482;25.548;2024-01-06T07:45:30;12.88;;;6.70;;
77466;SDS011;66564;42.482;25.548;2024-01-06T07:47:56;29.63;;;7.80;;
77466;SDS011;66564;42.482;25.548;2024-01-06T07:50:25;15.80;;;7.60;;
77466;SDS011;66564;42.482;25.548;2024-01-06T07:52:53;14.95;;;6.82;;
77466;SDS011;66564;42.482;25.548;2024-01-06T07:55:19;9.55;;;5.32;;
77466;SDS011;66564;42.482;25.548;2024-01-06T07:57:45;11.80;;;6.68;;
77466;SDS011;66564;42.482;25.548;2024-01-06T08:00:11;11.00;;;5.75;;
77466;SDS011;66564;42.482;25.548;2024-01-06T08:02:40;12.82;;;6.30;;
77466;SDS011;66564;42.482;25.548;2024-01-06T08:05:06;13.23;;;5.40;;
77466;SDS011;66564;42.482;25.548;2024-01-06T08:07:32;9.57;;;5.55;;
77466;SDS011;66564;42.482;25.548;2024-01-06T08:09:58;12.70;;;5.60;;
77466;SDS011;66564;42.482;25.548;2024-01-06T08:12:29;20.55;;;5.60;;
77466;SDS011;66564;42.482;25.548;2024-01-06T08:14:55;14.88;;;5.82;;
77466;SDS011;66564;42.482;25.548;2024-01-06T08:17:20;16.55;;;6.35;;
77466;SDS011;66564;42.482;25.548;2024-01-06T08:19:46;10.23;;;5.78;;
77466;SDS011;66564;42.482;25.548;2024-01-06T08:22:17;10.95;;;6.40;;
77466;SDS011;66564;42.482;25.548;2024-01-06T08:24:42;10.60;;;6.68;;
77466;SDS011;66564;42.482;25.548;2024-01-06T08:27:07;15.93;;;8.32;;
77466;SDS011;66564;42.482;25.548;2024-01-06T08:29:33;9.23;;;5.85;;
77466;SDS011;66564;42.482;25.548;2024-01-06T08:31:59;11.73;;;6.50;;
77466;SDS011;66564;42.482;25.548;2024-01-06T08:34:25;12.52;;;6.25;;
77466;SDS011;66564;42.482;25.548;2024-01-06T08:36:50;8.80;;;4.93;;
77466;SDS011;66564;42.482;25.548;2024-01-06T08:39:18;7.30;;;4.85;;
77466;SDS011;66564;42.482;25.548;2024-01-06T08:41:44;7.43;;;4.40;;
77466;SDS011;66564;42.482;25.548;2024-01-06T08:44:10;6.70;;;4.22;;
77466;SDS011;66564;42.482;25.548;2024-01-06T08:46:35;20.50;;;5.68;;
77466;SDS011;66564;42.482;25.548;2024-01-06T08:49:01;13.48;;;6.50;;
77466;SDS011;66564;42.482;25.548;2024-01-06T08:51:26;10.75;;;6.20;;
77466;SDS011;66564;42.482;25.548;2024-01-06T08:53:52;13.48;;;5.00;;
77466;SDS011;66564;42.482;25.548;2024-01-06T08:56:18;7.90;;;5.55;;
77466;SDS011;66564;42.482;25.548;2024-01-06T08:58:43;9.07;;;4.57;;
77466;SDS011;66564;42.482;25.548;2024-01-06T09:01:09;10.43;;;4.75;;
77466;SDS011;66564;42.482;25.548;2024-01-06T09:03:35;10.13;;;5.82;;
77466;SDS011;66564;42.482;25.548;2024-01-06T09:06:00;12.00;;;5.32;;
77466;SDS011;66564;42.482;25.548;2024-01-06T09:08:26;11.68;;;6.05;;
77466;SDS011;66564;42.482;25.548;2024-01-06T09:10:51;6.80;;;4.68;;
77466;SDS011;66564;42.482;25.548;2024-01-06T09:13:23;16.90;;;5.85;;
77466;SDS011;66564;42.482;25.548;2024-01-06T09:15:49;10.43;;;6.00;;
77466;SDS011;66564;42.482;25.548;2024-01-06T09:18:16;11.35;;;5.05;;
77466;SDS011;66564;42.482;25.548;2024-01-06T09:20:41;9.75;;;4.53;;
77466;SDS011;66564;42.482;25.548;2024-01-06T09:23:10;11.75;;;4.75;;
77466;SDS011;66564;42.482;25.548;2024-01-06T09:25:35;16.42;;;6.57;;
77466;SDS011;66564;42.482;25.548;2024-01-06T09:28:01;11.52;;;5.07;;
77466;SDS011;66564;42.482;25.548;2024-01-06T09:30:26;13.65;;;5.68;;
77466;SDS011;66564;42.482;25.548;2024-01-06T09:32:52;11.85;;;4.55;;
77466;SDS011;66564;42.482;25.548;2024-01-06T09:35:22;9.85;;;4.65;;
77466;SDS011;66564;42.482;25.548;2024-01-06T09:37:48;9.90;;;4.55;;
77466;SDS011;66564;42.482;25.548;2024-01-06T09:40:20;10.05;;;4.93;;
77466;SDS011;66564;42.482;25.548;2024-01-06T09:42:48;15.07;;;6.03;;
77466;SDS011;66564;42.482;25.548;2024-01-06T09:45:18;13.30;;;5.22;;
77466;SDS011;66564;42.482;25.548;2024-01-06T09:47:49;11.80;;;4.70;;
77466;SDS011;66564;42.482;25.548;2024-01-06T09:50:19;10.35;;;4.72;;
77466;SDS011;66564;42.482;25.548;2024-01-06T09:52:45;7.05;;;5.15;;
77466;SDS011;66564;42.482;25.548;2024-01-06T09:57:53;6.80;;;4.50;;
77466;SDS011;66564;42.482;25.548;2024-01-06T10:00:19;7.32;;;4.85;;
77466;SDS011;66564;42.482;25.548;2024-01-06T10:02:46;9.30;;;5.25;;
77466;SDS011;66564;42.482;25.548;2024-01-06T10:05:13;17.60;;;8.30;;
77466;SDS011;66564;42.482;25.548;2024-01-06T10:07:44;15.85;;;7.78;;
77466;SDS011;66564;42.482;25.548;2024-01-06T10:10:10;17.83;;;7.85;;
77466;SDS011;66564;42.482;25.548;2024-01-06T10:12:39;14.13;;;6.72;;
77466;SDS011;66564;42.482;25.548;2024-01-06T10:15:06;15.60;;;7.75;;
77466;SDS011;66564;42.482;25.548;2024-01-06T10:17:36;8.10;;;4.85;;
77466;SDS011;66564;42.482;25.548;2024-01-06T10:20:06;10.52;;;4.95;;
77466;SDS011;66564;42.482;25.548;2024-01-06T10:22:40;13.35;;;5.05;;
77466;SDS011;66564;42.482;25.548;2024-01-06T10:25:07;10.40;;;4.38;;
77466;SDS011;66564;42.482;25.548;2024-01-06T10:27:35;6.75;;;4.47;;
77466;SDS011;66564;42.482;25.548;2024-01-06T10:30:01;9.68;;;4.68;;
77466;SDS011;66564;42.482;25.548;2024-01-06T10:32:27;9.82;;;5.20;;
77466;SDS011;66564;42.482;25.548;2024-01-06T10:34:55;13.15;;;4.88;;
77466;SDS011;66564;42.482;25.548;2024-01-06T10:37:21;15.77;;;5.35;;
77466;SDS011;66564;42.482;25.548;2024-01-06T10:39:46;11.85;;;5.32;;
77466;SDS011;66564;42.482;25.548;2024-01-06T10:42:12;10.57;;;5.40;;
77466;SDS011;66564;42.482;25.548;2024-01-06T10:44:39;12.13;;;5.15;;
77466;SDS011;66564;42.482;25.548;2024-01-06T10:47:06;8.50;;;5.03;;
77466;SDS011;66564;42.482;25.548;2024-01-06T10:49:32;6.72;;;4.55;;
77466;SDS011;66564;42.482;25.548;2024-01-06T10:51:59;11.90;;;5.80;;
77466;SDS011;66564;42.482;25.548;2024-01-06T10:54:25;10.05;;;5.15;;
77466;SDS011;66564;42.482;25.548;2024-01-06T10:56:52;12.52;;;6.25;;
77466;SDS011;66564;42.482;25.548;2024-01-06T10:59:21;14.05;;;5.60;;
77466;SDS011;66564;42.482;25.548;2024-01-06T11:01:47;11.90;;;5.72;;
77466;SDS011;66564;42.482;25.548;2024-01-06T11:04:15;10.93;;;5.32;;
77466;SDS011;66564;42.482;25.548;2024-01-06T11:06:41;10.25;;;4.85;;
77466;SDS011;66564;42.482;25.548;2024-01-06T11:11:47;7.43;;;4.80;;
77466;SDS011;66564;42.482;25.548;2024-01-06T11:14:17;7.97;;;4.43;;
77466;SDS011;66564;42.482;25.548;2024-01-06T11:16:50;9.25;;;4.63;;
77466;SDS011;66564;42.482;25.548;2024-01-06T11:25:03;12.68;;;5.50;;
77466;SDS011;66564;42.482;25.548;2024-01-06T11:27:32;12.65;;;6.25;;
77466;SDS011;66564;42.482;25.548;2024-01-06T11:29:59;11.75;;;5.05;;
77466;SDS011;66564;42.482;25.548;2024-01-06T11:32:29;10.88;;;4.53;;
77466;SDS011;66564;42.482;25.548;2024-01-06T11:35:19;8.32;;;4.82;;
77466;SDS011;66564;42.482;25.548;2024-01-06T11:42:46;11.52;;;4.95;;
77466;SDS011;66564;42.482;25.548;2024-01-06T11:45:23;11.00;;;5.53;;
77466;SDS011;66564;42.482;25.548;2024-01-06T11:47:55;13.18;;;5.65;;
77466;SDS011;66564;42.482;25.548;2024-01-06T11:50:25;15.82;;;7.22;;
77466;SDS011;66564;42.482;25.548;2024-01-06T11:52:52;18.92;;;6.07;;
77466;SDS011;66564;42.482;25.548;2024-01-06T11:55:18;8.48;;;4.60;;
77466;SDS011;66564;42.482;25.548;2024-01-06T11:57:44;9.63;;;4.93;;
77466;SDS011;66564;42.482;25.548;2024-01-06T12:00:10;9.38;;;5.35;;
77466;SDS011;66564;42.482;25.548;2024-01-06T12:02:37;11.25;;;6.15;;
77466;SDS011;66564;42.482;25.548;2024-01-06T12:05:02;15.00;;;6.50;;
77466;SDS011;66564;42.482;25.548;2024-01-06T12:07:28;10.10;;;5.75;;
77466;SDS011;66564;42.482;25.548;2024-01-06T12:10:03;10.77;;;6.40;;
77466;SDS011;66564;42.482;25.548;2024-01-06T12:12:29;17.20;;;6.35;;
77466;SDS011;66564;42.482;25.548;2024-01-06T12:15:00;19.20;;;6.65;;
77466;SDS011;66564;42.482;25.548;2024-01-06T12:17:28;13.32;;;6.65;;
77466;SDS011;66564;42.482;25.548;2024-01-06T12:19:55;18.45;;;7.50;;
77466;SDS011;66564;42.482;25.548;2024-01-06T12:22:20;31.73;;;13.88;;
77466;SDS011;66564;42.482;25.548;2024-01-06T12:24:49;28.33;;;13.18;;
77466;SDS011;66564;42.482;25.548;2024-01-06T12:27:16;18.10;;;7.30;;
77466;SDS011;66564;42.482;25.548;2024-01-06T12:29:46;20.25;;;8.75;;
77466;SDS011;66564;42.482;25.548;2024-01-06T12:32:12;12.23;;;6.20;;
77466;SDS011;66564;42.482;25.548;2024-01-06T12:34:40;15.48;;;6.47;;
77466;SDS011;66564;42.482;25.548;2024-01-06T12:37:05;16.55;;;6.57;;
77466;SDS011;66564;42.482;25.548;2024-01-06T12:39:33;13.80;;;7.45;;
77466;SDS011;66564;42.482;25.548;2024-01-06T12:41:58;20.42;;;8.48;;
77466;SDS011;66564;42.482;25.548;2024-01-06T12:44:26;13.68;;;7.18;;
77466;SDS011;66564;42.482;25.548;2024-01-06T12:46:55;15.02;;;7.47;;
77466;SDS011;66564;42.482;25.548;2024-01-06T12:49:21;15.68;;;7.10;;
77466;SDS011;66564;42.482;25.548;2024-01-06T12:51:46;13.18;;;8.30;;
77466;SDS011;66564;42.482;25.548;2024-01-06T12:54:12;20.73;;;10.38;;
77466;SDS011;66564;42.482;25.548;2024-01-06T12:56:37;15.73;;;8.73;;
77466;SDS011;66564;42.482;25.548;2024-01-06T12:59:03;14.45;;;7.47;;
77466;SDS011;66564;42.482;25.548;2024-01-06T13:01:29;13.55;;;6.97;;
77466;SDS011;66564;42.482;25.548;2024-01-06T13:03:54;16.48;;;7.65;;
77466;SDS011;66564;42.482;25.548;2024-01-06T13:06:25;18.60;;;8.93;;
77466;SDS011;66564;42.482;25.548;2024-01-06T13:08:51;11.18;;;6.97;;
77466;SDS011;66564;42.482;25.548;2024-01-06T13:11:17;27.52;;;9.02;;
77466;SDS011;66564;42.482;25.548;2024-01-06T13:13:45;29.63;;;9.60;;
77466;SDS011;66564;42.482;25.548;2024-01-06T13:16:10;24.85;;;10.98;;
77466;SDS011;66564;42.482;25.548;2024-01-06T13:18:36;25.08;;;13.35;;
77466;SDS011;66564;42.482;25.548;2024-01-06T13:21:01;25.50;;;11.20;;
77466;SDS011;66564;42.482;25.548;2024-01-06T13:23:27;19.88;;;10.43;;
77466;SDS011;66564;42.482;25.548;2024-01-06T13:25:54;18.38;;;8.65;;
77466;SDS011;66564;42.482;25.548;2024-01-06T13:28:19;14.63;;;7.30;;
77466;SDS011;66564;42.482;25.548;2024-01-06T13:30:44;15.20;;;7.43;;
77466;SDS011;66564;42.482;25.548;2024-01-06T13:33:11;14.35;;;8.23;;
77466;SDS011;66564;42.482;25.548;2024-01-06T13:35:37;17.85;;;8.50;;
77466;SDS011;66564;42.482;25.548;2024-01-06T13:38:03;26.83;;;11.23;;
77466;SDS011;66564;42.482;25.548;2024-01-06T13:40:31;29.90;;;9.90;;
77466;SDS011;66564;42.482;25.548;2024-01-06T13:42:59;17.65;;;10.05;;
77466;SDS011;66564;42.482;25.548;2024-01-06T13:45:25;16.85;;;8.88;;
77466;SDS011;66564;42.482;25.548;2024-01-06T13:47:51;16.60;;;8.15;;
77466;SDS011;66564;42.482;25.548;2024-01-06T13:50:18;15.35;;;7.90;;
77466;SDS011;66564;42.482;25.548;2024-01-06T13:52:44;13.43;;;7.93;;
77466;SDS011;66564;42.482;25.548;2024-01-06T13:55:10;18.95;;;7.75;;
77466;SDS011;66564;42.482;25.548;2024-01-06T13:57:36;15.60;;;8.38;;
77466;SDS011;66564;42.482;25.548;2024-01-06T14:00:06;21.33;;;9.43;;
77466;SDS011;66564;42.482;25.548;2024-01-06T14:02:36;17.90;;;9.38;;
77466;SDS011;66564;42.482;25.548;2024-01-06T14:05:03;16.05;;;9.73;;
77466;SDS011;66564;42.482;25.548;2024-01-06T14:07:30;27.10;;;9.45;;
77466;SDS011;66564;42.482;25.548;2024-01-06T14:09:58;13.85;;;8.65;;
77466;SDS011;66564;42.482;25.548;2024-01-06T14:12:24;19.98;;;9.80;;
77466;SDS011;66564;42.482;25.548;2024-01-06T14:14:49;17.17;;;10.63;;
77466;SDS011;66564;42.482;25.548;2024-01-06T14:17:15;15.43;;;9.68;;
77466;SDS011;66564;42.482;25.548;2024-01-06T14:19:40;19.15;;;9.82;;
77466;SDS011;66564;42.482;25.548;2024-01-06T14:22:07;17.35;;;8.93;;
77466;SDS011;66564;42.482;25.548;2024-01-06T14:24:34;15.80;;;7.80;;
77466;SDS011;66564;42.482;25.548;2024-01-06T14:27:01;13.75;;;8.65;;
77466;SDS011;66564;42.482;25.548;2024-01-06T14:29:28;13.73;;;8.90;;
77466;SDS011;66564;42.482;25.548;2024-01-06T14:31:55;18.50;;;9.50;;
77466;SDS011;66564;42.482;25.548;2024-01-06T14:34:21;15.93;;;9.48;;
77466;SDS011;66564;42.482;25.548;2024-01-06T14:36:46;31.85;;;10.13;;
77466;SDS011;66564;42.482;25.548;2024-01-06T14:39:14;17.90;;;9.02;;
77466;SDS011;66564;42.482;25.548;2024-01-06T14:41:40;24.30;;;9.88;;